x

Ne Bahamas - 350 Nm Ene Of Nassau, Bahamas (41047) Wave Buoy

2:50pm - Sun 19th Apr 2015 All times are UTC.

  • Sig Wave height 3.9ft
  • Swell Direction
  • Peak Period 14s
  • Average Period 7s
  • Wind
    11mph, 13mph gusts
  • Sea Temp 77°f
  • Air Temp 76°f
  • Sea Pressure 1017.2mb

More Historic Weather Station data

Upgrade to MSW Pro to gain access to the past 30 days of data for over 8000 Wavebouys and Weather Stations around the globe.

Join Pro

Comparision Forecast

View Surf forecast
   
Sun 04/19 2:50pm 4ft 14s 7s 11 13 mph 1017.2mb 77f 76f
1:50pm 3.5ft 13s 6s 11 13 mph 1016.8mb 77f 76f
12:50pm 4ft 14s 7s 9 11 mph 1016.5mb 77f 76f
11:50am 4.5ft 15s 7s 7 9 mph 1016.3mb 77f 76f
10:50am 4.5ft 14s 7s 7 9 mph 1015.9mb 77f 76f
9:50am 5ft 14s 7s 9 11 mph 1015.3mb 77f 76f
8:50am 5ft 14s 7s 7 9 mph 1015.1mb 77f 75f
7:50am 5.5ft 14s 8s 7 9 mph 1015mb 77f 75f
6:50am 5.5ft 11s 8s 7 9 mph 1015.2mb 77f 75f
5:50am 5.5ft 15s 8s 7 9 mph 1015.8mb 77f 75f
4:50am 5.5ft 15s 8s 7 9 mph 1016.5mb 77f 76f
3:50am 5ft 12s 7s 2 4 mph 1016.6mb 77f 75f
2:50am 5ft 11s 7s 9 11 mph 1016.9mb 77f 75f
1:50am 5ft 13s 7s 7 9 mph 1017mb 77f 76f
12:50am 5ft 13s 7s 9 11 mph 1016.4mb 77f 76f
Sat 04/18 11:50pm 5ft 12s 7s 9 11 mph 1016.1mb 77f 76f
10:50pm 5ft 12s 6s 11 13 mph 1015.8mb 77f 77f
9:50pm 5ft 11s 6s 13 16 mph 1015.7mb 77f 77f
8:50pm 5ft 8s 6s 13 16 mph 1015.3mb 77f 77f
7:50pm 5.5ft 12s 6s 13 16 mph 1015.2mb 77f 77f
6:50pm 5ft 10s 6s 13 16 mph 1016.2mb 77f 75f
5:50pm 5ft 12s 6s 13 18 mph 1016.8mb 77f 76f
4:50pm 5ft 13s 6s 9 11 mph 1017.5mb 77f 76f
3:50pm 5ft 10s 6s 13 18 mph 1017.9mb 77f 74f
2:50pm 5.5ft 12s 7s 16 22 mph 1017.8mb 77f 75f
1:50pm 5.5ft 9s 7s 16 18 mph 1017.8mb 77f 76f
12:50pm 4.5ft 9s 6s 13 16 mph 1017.4mb 77f 76f
11:50am 5.5ft 8s 7s 13 16 mph 1017.2mb 77f 77f
10:50am 5.5ft 9s 7s 11
mph
1016.9mb 77f 76f
9:50am 6ft 10s 7s 7 11 mph 1016.3mb 77f 74f
8:50am 6ft 9s 7s 7 9 mph 1016.1mb 77f 75f
7:50am 6ft 9s 7s 7 9 mph 1016mb 77f 75f
6:50am 6ft 9s 7s 7 9 mph 1016.4mb 77f 75f
5:50am 6.5ft 9s 7s 11 16 mph 1017mb 77f 76f
4:50am 6ft 9s 7s 11 13 mph 1018mb 77f 76f
3:50am 6.5ft 9s 7s 9 13 mph 1018.4mb 77f 76f
2:50am 6ft 9s 7s 7
mph
1018.8mb 77f 76f
1:50am 7ft 9s 8s 7 9 mph 1018.8mb 77f 75f
12:50am 7ft 8s 7s 7 9 mph 1018.5mb 77f 74f
Fri 04/17 11:50pm 7ft 9s 7s 9 11 mph 1018.1mb 77f 74f
10:50pm 7.5ft 9s 7s 9 11 mph 1018.1mb 77f 73f
9:50pm 7ft 9s 8s 11 16 mph 1017.8mb 77f 75f
8:50pm 7.5ft 9s 7s 11 13 mph 1017.7mb 77f 76f
7:50pm 7ft 9s 7s 13 16 mph 1017.8mb 77f 77f
6:50pm 7ft 10s 7s 11 16 mph 1018.6mb 77f 77f
5:50pm 7ft 10s 8s 11 16 mph 1019.2mb 77f 77f
4:50pm 6ft 10s 7s 11 13 mph 1019.7mb 77f 76f
3:50pm 7ft 10s 8s 11 13 mph 1020.2mb 77f 76f
2:50pm 7ft 9s 8s 11 13 mph 1020.4mb 77f 76f
1:50pm 7ft 9s 8s 11 13 mph 1020.5mb 77f 76f
12:50pm 7ft 9s 7s 11 13 mph 1020.3mb 77f 76f
11:50am 7ft 9s 8s 11 13 mph 1020.1mb 77f 76f
10:50am 7ft 8s 8s 11 13 mph 1019.7mb 77f 76f
9:50am 7ft 9s 8s 9 11 mph 1019.2mb 78f 75f
8:50am 5ft 9s 7s 7 9 mph 1019mb 78f 75f
7:50am 4.5ft 9s 8s 9 11 mph 1018.9mb 78f 75f
6:50am 4.5ft 10s 7s 9
mph
1019.1mb 78f 75f
5:50am 4ft 9s 7s 9 11 mph 1020mb 78f 76f
4:50am 4ft 8s 7s 11 13 mph 1020.5mb 78f 75f
3:50am 4ft 8s 7s 9 11 mph 1021.2mb 78f 76f
2:50am 3.5ft 9s 7s 9 11 mph 1021.4mb 78f 76f
1:50am 3.5ft 8s 7s 9 11 mph 1021.4mb 78f 76f
12:50am 3.5ft 9s 7s 4 7 mph 1021.1mb 78f 75f
Thu 04/16 11:50pm 3ft 8s 7s 9 11 mph 1020.4mb 79f 74f
10:50pm 3.5ft 8s 7s 9
mph
1020.1mb 79f 75f
9:50pm 3ft 8s 7s 2 4 mph 1020.2mb 80f 76f
8:50pm 3ft 8s 7s 4 7 mph 1020mb 80f 77f
7:50pm 3ft 8s 6s 4 7 mph 1020.3mb 80f 76f
6:50pm 3ft 9s 7s 7
mph
1020.7mb 80f 76f
5:50pm 3ft 8s 7s 11
mph
1020.9mb 81f 76f
4:50pm 3ft 7s 7s 4 9 mph 1021.4mb 82f 77f
3:50pm 3ft 8s 7s 4 7 mph 1021.8mb 80f 76f
2:50pm 3ft 8s 7s 2 4 mph 1021.9mb 80f 76f
1:50pm 3ft 8s 6s 2
mph
1021.9mb 78f 77f
12:50pm 3ft 7s 6s 2 4 mph 1021.5mb 78f 76f
11:50am 3.5ft 8s 6s 2 4 mph 1021mb 78f 76f
10:50am 3.5ft 7s 6s 9
mph
1020.6mb 78f 75f
9:50am 3.5ft 8s 6s 2 4 mph 1020mb 78f 75f
8:50am 3.5ft 7s 6s  -  2 mph 1019.7mb 77f 75f
7:50am 3.5ft 8s 6s  -  mph 1019.7mb 77f 75f
6:50am 3.5ft 7s 6s  -  2 mph 1019.9mb 78f 75f
5:50am 4ft 8s 6s 2 4 mph 1020.5mb 78f 75f
4:50am 3.5ft 7s 6s 2
mph
1021.1mb 78f 76f
3:50am 3.5ft 8s 6s  -  2 mph 1021.5mb 78f 76f
2:50am 3.5ft 8s 6s 2
mph
1021.8mb 78f 76f
1:50am 4ft 8s 6s 4
mph
1021.6mb 78f 76f
12:50am 3.5ft 8s 6s 2 4 mph 1021mb 78f 76f
Wed 04/15 11:50pm 4ft 8s 6s 2
mph
1020.5mb 78f 76f
10:50pm 3.5ft 8s 6s 2 4 mph 1020.1mb 79f 76f
9:50pm 3.5ft 8s 6s 2 4 mph 1020.1mb 79f 77f
8:50pm 3ft 8s 6s 4 7 mph 1019.8mb 79f 77f
7:50pm 3ft 8s 6s 7
mph
1020.4mb 79f 77f
6:50pm 3.5ft 8s 6s 7 9 mph 1020.8mb 79f 77f
5:50pm 3.5ft 8s 6s 9 11 mph 1021.3mb 79f 77f
4:50pm 3.5ft 8s 6s 9 11 mph 1021.4mb 78f 76f